createdAt,value
2018-08-03T00:00:21.358Z,3.10
2018-08-03T00:00:55.322Z,3.10
2018-08-03T00:01:29.156Z,3.15
2018-08-03T00:02:03.070Z,3.40
2018-08-03T00:02:37.192Z,3.00
2018-08-03T00:03:11.000Z,3.17
2018-08-03T00:03:45.091Z,3.08
2018-08-03T00:04:19.065Z,2.92
2018-08-03T00:04:53.047Z,3.22
2018-08-03T00:05:27.052Z,3.62
2018-08-03T00:06:01.536Z,2.80
2018-08-03T00:06:35.411Z,3.27
2018-08-03T00:07:09.201Z,3.42
2018-08-03T00:07:43.051Z,3.63
2018-08-03T00:08:17.000Z,3.30
2018-08-03T00:08:51.207Z,3.15
2018-08-03T00:09:25.215Z,3.00
2018-08-03T00:09:58.892Z,3.20
2018-08-03T00:10:32.752Z,3.50
2018-08-03T00:11:07.309Z,3.22
2018-08-03T00:11:41.807Z,2.98
2018-08-03T00:12:15.738Z,2.87
2018-08-03T00:12:49.612Z,3.20
2018-08-03T00:13:23.559Z,3.10
2018-08-03T00:13:57.247Z,2.80
2018-08-03T00:14:31.248Z,3.83
2018-08-03T00:15:06.186Z,2.90
2018-08-03T00:15:39.987Z,2.90
2018-08-03T00:16:14.227Z,3.00
2018-08-03T00:16:49.283Z,2.85
2018-08-03T00:17:23.629Z,3.08
2018-08-03T00:17:57.736Z,2.80
2018-08-03T00:18:31.736Z,3.20
2018-08-03T00:19:05.624Z,2.92
2018-08-03T00:19:39.693Z,3.00
2018-08-03T00:20:13.830Z,3.67
2018-08-03T00:20:47.939Z,3.30
2018-08-03T00:21:21.571Z,2.65
2018-08-03T00:21:55.520Z,3.10
2018-08-03T00:22:29.387Z,3.00
2018-08-03T00:23:03.296Z,3.25
2018-08-03T00:23:37.312Z,3.20
2018-08-03T00:24:11.268Z,3.40
2018-08-03T00:24:45.088Z,3.33
2018-08-03T00:25:19.131Z,2.80
2018-08-03T00:25:53.163Z,3.00
2018-08-03T00:26:27.172Z,3.10
2018-08-03T00:27:01.046Z,2.87
2018-08-03T00:27:35.259Z,2.97
2018-08-03T00:28:09.009Z,2.83
2018-08-03T00:28:42.859Z,3.07
2018-08-03T00:29:16.562Z,2.92
2018-08-03T00:29:50.460Z,3.62
2018-08-03T00:30:24.231Z,2.57
2018-08-03T00:30:58.215Z,3.00
2018-08-03T00:31:31.847Z,2.87
2018-08-03T00:32:05.528Z,2.72
2018-08-03T00:32:39.463Z,3.23
2018-08-03T00:33:13.594Z,3.10
2018-08-03T00:33:47.438Z,3.43
2018-08-03T00:34:21.217Z,2.97
2018-08-03T00:34:54.795Z,3.27
2018-08-03T00:35:28.515Z,3.20
2018-08-03T00:36:02.375Z,3.03
2018-08-03T00:36:36.112Z,3.05
2018-08-03T00:37:09.714Z,2.77
2018-08-03T00:37:43.452Z,3.27
2018-08-03T00:38:17.306Z,3.00
2018-08-03T00:38:51.195Z,3.33
2018-08-03T00:39:25.188Z,3.00
2018-08-03T00:40:00.236Z,2.60
2018-08-03T00:40:34.044Z,2.97
2018-08-03T00:41:08.023Z,3.30
2018-08-03T00:41:41.797Z,3.30
2018-08-03T00:42:15.661Z,3.10
2018-08-03T00:42:49.765Z,2.92
2018-08-03T00:43:23.659Z,3.13
2018-08-03T00:43:58.002Z,2.60
2018-08-03T00:44:32.160Z,2.90
2018-08-03T00:45:06.208Z,3.17
2018-08-03T00:45:39.958Z,3.10
2018-08-03T00:46:13.919Z,3.20
2018-08-03T00:46:47.919Z,3.20
2018-08-03T00:47:21.629Z,3.40
2018-08-03T00:47:55.406Z,3.17
2018-08-03T00:48:29.244Z,3.10
2018-08-03T00:49:03.265Z,2.85
2018-08-03T00:49:37.132Z,2.80
2018-08-03T00:50:11.136Z,3.17
2018-08-03T00:50:45.002Z,3.10
2018-08-03T00:51:18.900Z,3.20
2018-08-03T00:51:52.824Z,3.10
2018-08-03T00:52:26.639Z,2.93
2018-08-03T00:53:00.383Z,3.43
2018-08-03T00:53:34.333Z,2.87
2018-08-03T00:54:08.156Z,3.00
2018-08-03T00:54:41.883Z,3.47
2018-08-03T00:55:16.204Z,2.87
2018-08-03T00:55:50.088Z,3.45
2018-08-03T00:56:23.803Z,3.03
2018-08-03T00:56:57.779Z,2.90
2018-08-03T00:57:31.753Z,2.90
2018-08-03T00:58:05.432Z,2.80
2018-08-03T00:58:39.355Z,3.40
2018-08-03T00:59:13.203Z,3.40
2018-08-03T00:59:47.056Z,3.50
2018-08-03T01:00:21.243Z,3.47
2018-08-03T01:00:55.159Z,3.13
2018-08-03T01:01:28.975Z,2.90
2018-08-03T01:02:02.840Z,2.90
2018-08-03T01:02:36.575Z,3.35
2018-08-03T01:03:10.519Z,3.00
2018-08-03T01:03:44.379Z,3.47
2018-08-03T01:04:18.215Z,3.00
2018-08-03T01:04:52.192Z,3.57
2018-08-03T01:05:25.907Z,2.73
2018-08-03T01:05:59.696Z,2.93
2018-08-03T01:06:33.599Z,2.90
2018-08-03T01:07:07.483Z,3.67
2018-08-03T01:07:41.267Z,3.10
2018-08-03T01:08:14.996Z,2.98
2018-08-03T01:08:48.855Z,2.53
2018-08-03T01:09:22.826Z,3.00
2018-08-03T01:09:56.746Z,3.20
2018-08-03T01:10:30.586Z,3.00
2018-08-03T01:11:04.331Z,2.83
2018-08-03T01:11:38.024Z,3.10
2018-08-03T01:12:11.935Z,3.10
2018-08-03T01:12:47.119Z,3.62
2018-08-03T01:13:21.143Z,3.42
2018-08-03T01:13:54.895Z,3.20
2018-08-03T01:14:29.061Z,2.90
2018-08-03T01:15:02.812Z,3.33
2018-08-03T01:15:36.698Z,3.27
2018-08-03T01:16:10.296Z,3.07
2018-08-03T01:16:44.004Z,3.20
2018-08-03T01:17:17.908Z,3.10
2018-08-03T01:17:52.055Z,3.27
2018-08-03T01:18:26.002Z,2.98
2018-08-03T01:18:59.729Z,3.73
2018-08-03T01:19:33.548Z,3.10
2018-08-03T01:20:07.439Z,3.10
2018-08-03T01:20:41.348Z,3.20
2018-08-03T01:21:15.160Z,3.20
2018-08-03T01:21:49.119Z,3.30
2018-08-03T01:22:22.903Z,3.25
2018-08-03T01:22:56.811Z,3.10
2018-08-03T01:23:30.845Z,2.80
2018-08-03T01:24:04.782Z,3.12
2018-08-03T01:24:38.592Z,2.90
2018-08-03T01:25:12.496Z,3.20
2018-08-03T01:25:46.067Z,2.87
2018-08-03T01:26:19.744Z,3.00
2018-08-03T01:26:53.653Z,3.30
2018-08-03T01:27:27.554Z,3.10
2018-08-03T01:28:01.339Z,3.30
2018-08-03T01:28:35.048Z,2.70
2018-08-03T01:29:09.085Z,3.17
2018-08-03T01:29:42.763Z,3.83
2018-08-03T01:30:16.497Z,3.30
2018-08-03T01:30:50.398Z,3.33
2018-08-03T01:31:24.292Z,2.93
2018-08-03T01:31:58.067Z,3.00
2018-08-03T01:32:32.003Z,3.03
2018-08-03T01:33:05.622Z,2.70
2018-08-03T01:33:39.456Z,3.10
2018-08-03T01:34:13.222Z,3.20
2018-08-03T01:34:47.048Z,3.10
2018-08-03T01:35:20.912Z,3.27
2018-08-03T01:35:54.747Z,3.13
2018-08-03T01:36:28.728Z,3.07
2018-08-03T01:37:02.416Z,3.57
2018-08-03T01:37:36.367Z,3.43
2018-08-03T01:38:10.227Z,3.20
2018-08-03T01:38:44.021Z,3.33
2018-08-03T01:39:17.868Z,3.27
2018-08-03T01:39:51.803Z,3.00
2018-08-03T01:40:25.477Z,3.30
2018-08-03T01:40:59.380Z,3.20
2018-08-03T01:41:33.075Z,3.20
2018-08-03T01:42:06.958Z,3.73
2018-08-03T01:42:40.946Z,3.33
2018-08-03T01:43:14.660Z,3.30
2018-08-03T01:43:48.548Z,3.17
2018-08-03T01:44:22.344Z,3.40
2018-08-03T01:44:56.283Z,3.43
2018-08-03T01:45:30.259Z,3.13
2018-08-03T01:46:04.043Z,4.10
2018-08-03T01:46:37.949Z,3.43
2018-08-03T01:47:11.956Z,3.83
2018-08-03T01:47:45.680Z,3.73
2018-08-03T01:48:19.454Z,3.50
2018-08-03T01:48:53.605Z,3.37
2018-08-03T01:49:27.541Z,3.17
2018-08-03T01:50:01.488Z,3.23
2018-08-03T01:50:35.553Z,3.07
2018-08-03T01:51:09.596Z,3.40
2018-08-03T01:51:43.524Z,3.33
2018-08-03T01:52:17.615Z,3.07
2018-08-03T01:52:51.563Z,3.42
2018-08-03T01:53:25.896Z,3.53
2018-08-03T01:54:00.000Z,3.03
2018-08-03T01:54:34.208Z,3.27
2018-08-03T01:55:08.075Z,3.43
2018-08-03T01:55:41.944Z,3.27
2018-08-03T01:56:15.728Z,3.30
2018-08-03T01:56:49.504Z,3.23
2018-08-03T01:57:23.535Z,3.30
2018-08-03T01:57:57.349Z,3.63
2018-08-03T01:58:31.260Z,3.33
2018-08-03T01:59:05.149Z,3.30
2018-08-03T01:59:38.855Z,3.63
2018-08-03T02:00:12.692Z,3.23
2018-08-03T02:00:46.483Z,3.23
2018-08-03T02:01:20.319Z,3.17
2018-08-03T02:01:54.216Z,3.47
2018-08-03T02:02:28.096Z,3.43
2018-08-03T02:03:02.120Z,3.13
2018-08-03T02:03:35.856Z,3.13
2018-08-03T02:04:09.650Z,3.47
2018-08-03T02:04:43.372Z,3.33
2018-08-03T02:05:17.209Z,3.30
2018-08-03T02:05:51.050Z,3.10
2018-08-03T02:06:27.243Z,3.20
2018-08-03T02:07:01.219Z,3.27
2018-08-03T02:07:35.007Z,3.60
2018-08-03T02:08:08.768Z,3.37
2018-08-03T02:08:42.675Z,3.27
2018-08-03T02:09:16.578Z,3.30
2018-08-03T02:09:50.360Z,3.30
2018-08-03T02:10:24.024Z,3.40
2018-08-03T02:10:57.840Z,3.87
2018-08-03T02:11:31.658Z,3.37
2018-08-03T02:12:05.431Z,3.47
2018-08-03T02:12:39.296Z,3.40
2018-08-03T02:13:13.215Z,3.33
2018-08-03T02:13:47.063Z,2.90
2018-08-03T02:14:20.853Z,3.30
2018-08-03T02:14:54.510Z,3.53
2018-08-03T02:15:28.398Z,3.33
2018-08-03T02:16:02.240Z,3.43
2018-08-03T02:16:36.000Z,3.37
2018-08-03T02:17:09.732Z,3.37
2018-08-03T02:17:43.455Z,3.30
2018-08-03T02:18:17.315Z,3.13
2018-08-03T02:18:51.060Z,3.47
2018-08-03T02:19:24.715Z,3.70
2018-08-03T02:19:58.668Z,3.60
2018-08-03T02:20:32.644Z,3.30
2018-08-03T02:21:06.620Z,3.53
2018-08-03T02:21:40.310Z,3.50
2018-08-03T02:22:14.084Z,3.60
2018-08-03T02:22:48.691Z,3.23
2018-08-03T02:23:22.412Z,3.87
2018-08-03T02:23:56.337Z,3.53
2018-08-03T02:24:30.276Z,3.67
2018-08-03T02:25:04.619Z,3.40
2018-08-03T02:25:38.402Z,3.40
2018-08-03T02:26:12.352Z,3.30
2018-08-03T02:26:46.101Z,3.20
2018-08-03T02:27:19.847Z,3.50
2018-08-03T02:27:53.850Z,3.27
2018-08-03T02:28:27.591Z,3.50
2018-08-03T02:29:01.467Z,3.43
2018-08-03T02:29:35.111Z,3.43
2018-08-03T02:30:08.837Z,3.63
2018-08-03T02:30:42.591Z,3.30
2018-08-03T02:31:16.427Z,3.60
2018-08-03T02:31:50.167Z,3.87
2018-08-03T02:32:23.979Z,3.20
2018-08-03T02:32:57.730Z,3.75
2018-08-03T02:33:32.852Z,3.50
2018-08-03T02:34:07.691Z,3.27
2018-08-03T02:34:41.681Z,3.27
2018-08-03T02:35:15.532Z,3.63
2018-08-03T02:35:49.418Z,3.23
2018-08-03T02:36:23.304Z,3.43
2018-08-03T02:36:57.168Z,3.40
2018-08-03T02:37:30.938Z,3.23
2018-08-03T02:38:05.135Z,3.53
2018-08-03T02:38:39.631Z,3.50
2018-08-03T02:39:13.499Z,3.50
2018-08-03T02:39:47.378Z,3.40
2018-08-03T02:40:21.312Z,3.10
2018-08-03T02:40:55.231Z,3.87
2018-08-03T02:41:28.877Z,3.63
2018-08-03T02:42:02.684Z,3.90
2018-08-03T02:42:36.596Z,3.57
2018-08-03T02:43:10.702Z,3.50
2018-08-03T02:43:44.522Z,3.50
2018-08-03T02:44:18.335Z,3.90
2018-08-03T02:44:52.281Z,3.57
2018-08-03T02:45:25.968Z,3.63
2018-08-03T02:45:59.692Z,3.07
2018-08-03T02:46:33.511Z,3.20
2018-08-03T02:47:07.432Z,3.20
2018-08-03T02:47:41.317Z,4.13
2018-08-03T02:48:15.067Z,3.50
2018-08-03T02:48:48.879Z,3.00
2018-08-03T02:49:22.749Z,3.33
2018-08-03T02:49:56.707Z,3.77
2018-08-03T02:50:30.570Z,3.40
2018-08-03T02:51:04.569Z,3.60
2018-08-03T02:51:38.506Z,3.50
2018-08-03T02:52:12.432Z,3.53
2018-08-03T02:52:46.104Z,4.13
2018-08-03T02:53:19.796Z,3.60
2018-08-03T02:53:53.655Z,3.77
2018-08-03T02:54:27.892Z,3.80
2018-08-03T02:55:01.692Z,3.83
2018-08-03T02:55:35.500Z,4.10
2018-08-03T02:56:09.657Z,4.17
2018-08-03T02:56:43.614Z,3.70
2018-08-03T02:57:17.466Z,3.97
2018-08-03T02:57:51.228Z,3.73
2018-08-03T02:58:24.903Z,4.00
2018-08-03T02:58:58.657Z,4.23
2018-08-03T02:59:32.479Z,4.00
2018-08-03T03:00:06.230Z,3.97
2018-08-03T03:00:39.997Z,3.73
2018-08-03T03:01:13.815Z,3.80
2018-08-03T03:01:47.690Z,3.60
2018-08-03T03:02:21.617Z,4.03
2018-08-03T03:02:55.187Z,3.43
2018-08-03T03:03:28.869Z,4.03
2018-08-03T03:04:02.824Z,3.90
2018-08-03T03:04:36.715Z,4.17
2018-08-03T03:05:10.725Z,4.13
2018-08-03T03:05:44.507Z,4.33
2018-08-03T03:06:18.164Z,3.77
2018-08-03T03:06:52.147Z,3.63
2018-08-03T03:07:26.004Z,3.57
2018-08-03T03:07:59.847Z,3.97
2018-08-03T03:08:33.854Z,4.23
2018-08-03T03:09:09.915Z,4.13
2018-08-03T03:09:44.032Z,4.20
2018-08-03T03:10:17.897Z,4.27
2018-08-03T03:10:52.191Z,4.20
2018-08-03T03:11:25.964Z,4.33
2018-08-03T03:11:59.921Z,4.47
2018-08-03T03:12:33.910Z,4.53
2018-08-03T03:13:07.707Z,4.07
2018-08-03T03:13:41.623Z,4.47
2018-08-03T03:14:15.633Z,4.10
2018-08-03T03:14:49.359Z,4.17
2018-08-03T03:15:23.334Z,4.47
2018-08-03T03:15:57.219Z,4.73
2018-08-03T03:16:31.022Z,4.70
2018-08-03T03:17:05.007Z,4.57
2018-08-03T03:17:39.056Z,4.65
2018-08-03T03:18:13.080Z,4.60
2018-08-03T03:18:46.830Z,4.17
2018-08-03T03:19:20.588Z,4.47
2018-08-03T03:19:54.275Z,4.30
2018-08-03T03:20:28.908Z,4.87
2018-08-03T03:21:02.667Z,4.50
2018-08-03T03:21:36.737Z,4.30
2018-08-03T03:22:10.969Z,4.23
2018-08-03T03:22:45.137Z,4.67
2018-08-03T03:23:18.988Z,4.30
2018-08-03T03:23:52.669Z,4.20
2018-08-03T03:24:26.680Z,4.50
2018-08-03T03:25:00.763Z,4.15
2018-08-03T03:25:34.633Z,4.10
2018-08-03T03:26:08.300Z,4.50
2018-08-03T03:26:42.868Z,4.67
2018-08-03T03:27:16.804Z,4.83
2018-08-03T03:27:50.369Z,4.73
2018-08-03T03:28:24.251Z,4.47
2018-08-03T03:28:58.101Z,4.03
2018-08-03T03:29:31.951Z,4.33
2018-08-03T03:30:07.099Z,4.03
2018-08-03T03:30:40.891Z,4.20
2018-08-03T03:31:14.561Z,4.67
2018-08-03T03:31:48.452Z,4.37
2018-08-03T03:32:22.245Z,4.83
2018-08-03T03:32:55.999Z,4.33
2018-08-03T03:33:30.060Z,4.20
2018-08-03T03:34:03.940Z,4.60
2018-08-03T03:34:38.637Z,4.47
2018-08-03T03:35:12.456Z,4.50
2018-08-03T03:35:46.331Z,4.53
2018-08-03T03:36:20.119Z,4.40
2018-08-03T03:36:53.934Z,4.43
2018-08-03T03:37:27.723Z,4.07
2018-08-03T03:38:01.703Z,4.50
2018-08-03T03:38:35.740Z,5.20
2018-08-03T03:39:11.822Z,4.27
2018-08-03T03:39:45.712Z,4.77
2018-08-03T03:40:19.538Z,4.47
2018-08-03T03:40:53.320Z,4.83
2018-08-03T03:41:27.298Z,4.60
2018-08-03T03:42:01.387Z,4.63
2018-08-03T03:42:35.150Z,4.37
2018-08-03T03:43:08.843Z,4.63
2018-08-03T03:43:43.438Z,4.80
2018-08-03T03:44:17.311Z,4.90
2018-08-03T03:44:51.035Z,4.50
2018-08-03T03:45:24.873Z,4.07
2018-08-03T03:45:58.464Z,4.83
2018-08-03T03:46:32.107Z,4.40
2018-08-03T03:47:05.859Z,4.50
2018-08-03T03:47:39.649Z,4.60
2018-08-03T03:48:13.476Z,4.43
2018-08-03T03:48:47.372Z,4.40
2018-08-03T03:49:21.139Z,4.63
2018-08-03T03:49:54.827Z,4.50
2018-08-03T03:50:28.690Z,4.63
2018-08-03T03:51:02.542Z,4.17
2018-08-03T03:51:36.331Z,4.20
2018-08-03T03:52:10.260Z,4.67
2018-08-03T03:52:45.012Z,4.50
2018-08-03T03:53:18.734Z,4.40
2018-08-03T03:53:52.793Z,4.50
2018-08-03T03:54:26.607Z,4.77
2018-08-03T03:55:00.383Z,4.23
2018-08-03T03:55:34.259Z,4.83
2018-08-03T03:56:08.084Z,4.40
2018-08-03T03:56:41.940Z,4.77
2018-08-03T03:57:15.840Z,4.30
2018-08-03T03:57:50.735Z,4.50
2018-08-03T03:58:24.620Z,4.67
2018-08-03T03:58:58.479Z,4.13
2018-08-03T03:59:32.180Z,4.10
2018-08-03T04:00:07.084Z,4.53
2018-08-03T04:00:40.882Z,4.60
2018-08-03T04:01:14.516Z,4.50
2018-08-03T04:01:48.352Z,5.03
2018-08-03T04:02:22.256Z,5.17
2018-08-03T04:02:56.330Z,4.40
2018-08-03T04:03:30.152Z,4.60
2018-08-03T04:04:04.144Z,4.43
2018-08-03T04:04:38.044Z,4.43
2018-08-03T04:05:12.043Z,5.00
2018-08-03T04:05:45.900Z,4.83
2018-08-03T04:06:19.641Z,4.70
2018-08-03T04:06:53.569Z,4.73
2018-08-03T04:07:27.358Z,4.77
2018-08-03T04:08:01.208Z,5.17
2018-08-03T04:08:34.897Z,4.43
2018-08-03T04:09:11.142Z,4.87
2018-08-03T04:09:44.750Z,4.90
2018-08-03T04:10:18.776Z,4.47
2018-08-03T04:10:52.612Z,4.80
2018-08-03T04:11:26.220Z,4.77
2018-08-03T04:12:00.109Z,4.73
2018-08-03T04:12:33.996Z,5.20
2018-08-03T04:13:07.663Z,5.07
2018-08-03T04:13:41.372Z,4.80
2018-08-03T04:14:15.212Z,4.70
2018-08-03T04:14:49.210Z,5.00
2018-08-03T04:15:22.878Z,4.73
2018-08-03T04:15:56.515Z,4.67
2018-08-03T04:16:30.251Z,4.47
2018-08-03T04:17:04.097Z,5.33
2018-08-03T04:17:37.937Z,5.10
2018-08-03T04:18:26.682Z,5.17
2018-08-03T04:19:00.520Z,4.70
2018-08-03T04:19:34.325Z,5.03
2018-08-03T04:20:08.012Z,4.97
2018-08-03T04:20:41.935Z,4.57
2018-08-03T04:21:15.756Z,4.60
2018-08-03T04:21:49.717Z,4.90
2018-08-03T04:22:23.752Z,5.43
2018-08-03T04:22:57.647Z,5.07
2018-08-03T04:23:31.515Z,5.03
2018-08-03T04:24:05.425Z,4.97
2018-08-03T04:24:39.285Z,5.30
2018-08-03T04:25:13.138Z,5.23
2018-08-03T04:25:47.092Z,5.33
2018-08-03T04:26:20.987Z,5.50
2018-08-03T04:26:54.926Z,5.30
2018-08-03T04:27:28.611Z,5.47
2018-08-03T04:28:02.467Z,5.13
2018-08-03T04:28:36.267Z,5.13
2018-08-03T04:29:10.318Z,5.23
2018-08-03T04:29:44.227Z,5.23
2018-08-03T04:30:18.266Z,5.37
2018-08-03T04:30:51.984Z,4.97
2018-08-03T04:31:25.910Z,4.97
2018-08-03T04:31:59.699Z,5.23
2018-08-03T04:32:33.748Z,5.20
2018-08-03T04:33:07.484Z,4.87
2018-08-03T04:33:41.333Z,5.30
2018-08-03T04:34:15.155Z,5.23
2018-08-03T04:34:48.937Z,5.27
2018-08-03T04:35:22.835Z,5.10
2018-08-03T04:35:56.651Z,5.63
2018-08-03T04:36:30.358Z,5.17
2018-08-03T04:37:04.328Z,5.20
2018-08-03T04:37:38.127Z,5.13
2018-08-03T04:38:12.164Z,4.87
2018-08-03T04:38:46.143Z,4.63
2018-08-03T04:39:19.847Z,5.27
2018-08-03T04:39:53.947Z,5.10
2018-08-03T04:40:27.944Z,5.13
2018-08-03T04:41:01.735Z,5.23
2018-08-03T04:41:35.516Z,4.90
2018-08-03T04:42:09.294Z,4.93
2018-08-03T04:42:43.298Z,4.90
2018-08-03T04:43:17.201Z,5.57
2018-08-03T04:43:51.056Z,5.33
2018-08-03T04:44:25.021Z,5.10
2018-08-03T04:44:59.396Z,5.13
2018-08-03T04:45:33.064Z,4.47
2018-08-03T04:46:07.040Z,5.00
2018-08-03T04:46:40.762Z,5.07
2018-08-03T04:47:14.404Z,4.80
2018-08-03T04:47:48.363Z,5.17
2018-08-03T04:48:22.246Z,4.70
2018-08-03T04:48:56.257Z,5.10
2018-08-03T04:49:30.064Z,5.20
2018-08-03T04:50:04.259Z,4.50
2018-08-03T04:50:37.965Z,4.67
2018-08-03T04:51:12.020Z,5.20
2018-08-03T04:51:45.871Z,5.03
2018-08-03T04:52:20.538Z,4.80
2018-08-03T04:52:54.453Z,5.03
2018-08-03T04:53:28.321Z,5.43
2018-08-03T04:54:02.092Z,5.40
2018-08-03T04:54:35.806Z,5.13
2018-08-03T04:55:09.711Z,5.07
2018-08-03T04:55:43.451Z,5.20
2018-08-03T04:56:17.396Z,4.80
2018-08-03T04:56:51.581Z,5.33
2018-08-03T04:57:25.452Z,5.60
2018-08-03T04:57:59.498Z,4.93
2018-08-03T04:58:33.354Z,5.27
2018-08-03T04:59:07.460Z,5.87
2018-08-03T04:59:41.392Z,5.80
2018-08-03T05:00:15.188Z,5.20
2018-08-03T05:00:49.276Z,5.13
2018-08-03T05:01:23.556Z,4.80
2018-08-03T05:01:57.288Z,4.63
2018-08-03T05:02:31.172Z,6.07
2018-08-03T05:03:05.007Z,5.57
2018-08-03T05:03:38.860Z,5.00
2018-08-03T05:04:12.586Z,5.53
2018-08-03T05:04:46.471Z,4.93
2018-08-03T05:05:20.406Z,4.43
2018-08-03T05:05:54.295Z,5.60
2018-08-03T05:06:28.199Z,4.97
2018-08-03T05:07:02.136Z,5.07
2018-08-03T05:07:35.999Z,5.00
2018-08-03T05:08:09.602Z,5.00
2018-08-03T05:08:43.343Z,5.10
2018-08-03T05:09:17.260Z,4.93
2018-08-03T05:09:51.125Z,5.33
2018-08-03T05:10:24.762Z,5.10
2018-08-03T05:10:58.781Z,5.23
2018-08-03T05:11:32.547Z,5.23
2018-08-03T05:12:06.129Z,5.30
2018-08-03T05:12:39.898Z,5.00
2018-08-03T05:13:14.145Z,5.07
2018-08-03T05:13:48.108Z,5.37
2018-08-03T05:14:21.865Z,5.20
2018-08-03T05:14:55.687Z,4.70
2018-08-03T05:15:29.636Z,5.23
2018-08-03T05:16:03.592Z,5.50
2018-08-03T05:16:37.271Z,5.03
2018-08-03T05:17:11.079Z,4.60
2018-08-03T05:17:44.833Z,5.43
2018-08-03T05:18:18.576Z,4.73
2018-08-03T05:18:52.334Z,5.30
2018-08-03T05:19:26.159Z,5.50
2018-08-03T05:20:00.118Z,5.00
2018-08-03T05:20:34.074Z,4.60
2018-08-03T05:21:07.907Z,5.20
2018-08-03T05:21:41.586Z,5.43
2018-08-03T05:22:15.813Z,5.50
2018-08-03T05:22:49.760Z,5.60
2018-08-03T05:23:23.576Z,4.87
2018-08-03T05:23:57.423Z,5.27
2018-08-03T05:24:31.647Z,5.40
2018-08-03T05:25:06.024Z,5.43
2018-08-03T05:25:39.982Z,4.93
2018-08-03T05:26:13.711Z,5.37
2018-08-03T05:26:47.698Z,5.07
2018-08-03T05:27:21.418Z,5.20
2018-08-03T05:27:55.223Z,5.80
2018-08-03T05:28:29.064Z,5.60
2018-08-03T05:29:02.903Z,5.40
2018-08-03T05:29:36.779Z,5.47
2018-08-03T05:30:10.750Z,5.77
2018-08-03T05:30:44.536Z,5.43
2018-08-03T05:31:18.675Z,5.37
2018-08-03T05:31:52.538Z,5.50
2018-08-03T05:32:26.229Z,5.90
2018-08-03T05:33:00.203Z,5.53
2018-08-03T05:33:34.116Z,5.50
2018-08-03T05:34:08.323Z,5.13
2018-08-03T05:34:42.160Z,4.90
2018-08-03T05:35:15.898Z,5.10
2018-08-03T05:35:49.591Z,5.40
2018-08-03T05:36:23.354Z,6.10
2018-08-03T05:36:57.254Z,5.90
2018-08-03T05:37:31.497Z,5.47
2018-08-03T05:38:05.495Z,5.03
2018-08-03T05:38:39.252Z,5.60
2018-08-03T05:39:13.240Z,6.03
2018-08-03T05:39:47.005Z,6.23
2018-08-03T05:40:20.863Z,5.80
2018-08-03T05:40:54.538Z,5.90
2018-08-03T05:41:28.481Z,5.27
2018-08-03T05:42:02.519Z,5.67
2018-08-03T05:42:36.409Z,5.63
2018-08-03T05:43:10.094Z,5.77
2018-08-03T05:43:44.026Z,5.73
2018-08-03T05:44:17.875Z,6.17
2018-08-03T05:44:51.815Z,5.87
2018-08-03T05:45:25.602Z,5.80
2018-08-03T05:45:59.412Z,5.77
2018-08-03T05:46:33.121Z,6.17
2018-08-03T05:47:07.371Z,5.90
2018-08-03T05:47:41.066Z,6.00
2018-08-03T05:48:15.193Z,6.03
2018-08-03T05:48:48.902Z,5.53
2018-08-03T05:49:22.817Z,5.60
2018-08-03T05:49:56.629Z,5.57
2018-08-03T05:50:30.453Z,5.77
2018-08-03T05:51:04.419Z,5.80
2018-08-03T05:51:38.437Z,5.57
2018-08-03T05:52:12.282Z,5.67
2018-08-03T05:52:46.041Z,5.15
2018-08-03T05:53:20.020Z,5.40
2018-08-03T05:53:54.036Z,6.30
2018-08-03T05:54:27.689Z,6.30
2018-08-03T05:55:01.488Z,6.40
2018-08-03T05:55:35.179Z,6.07
2018-08-03T05:56:09.071Z,5.78
2018-08-03T05:56:43.032Z,5.70
2018-08-03T05:57:17.041Z,5.80
2018-08-03T05:57:51.038Z,6.00
2018-08-03T05:58:24.886Z,6.17
2018-08-03T05:58:58.793Z,5.95
2018-08-03T05:59:32.493Z,6.33
2018-08-03T06:00:06.617Z,5.80
2018-08-03T06:00:40.660Z,5.73
2018-08-03T06:01:14.456Z,6.57
2018-08-03T06:01:48.503Z,5.97
2018-08-03T06:02:22.453Z,6.58
2018-08-03T06:02:56.310Z,6.42
2018-08-03T06:03:30.219Z,6.40
2018-08-03T06:04:04.061Z,6.67
2018-08-03T06:04:37.864Z,6.80
2018-08-03T06:05:11.716Z,6.25
2018-08-03T06:05:45.904Z,6.40
2018-08-03T06:06:19.688Z,6.17
2018-08-03T06:06:53.571Z,6.60
2018-08-03T06:07:27.487Z,6.90
2018-08-03T06:08:01.387Z,7.27
2018-08-03T06:08:35.267Z,6.40
2018-08-03T06:09:10.428Z,6.17
2018-08-03T06:09:44.192Z,6.53
2018-08-03T06:10:17.891Z,6.58
2018-08-03T06:10:51.719Z,6.30
2018-08-03T06:11:25.315Z,6.00
2018-08-03T06:11:59.035Z,6.60
2018-08-03T06:12:32.948Z,7.25
2018-08-03T06:13:06.964Z,6.33
2018-08-03T06:13:40.964Z,6.65
2018-08-03T06:14:14.848Z,6.37
2018-08-03T06:14:49.036Z,6.65
2018-08-03T06:15:22.699Z,7.07
2018-08-03T06:15:56.478Z,6.80
2018-08-03T06:16:30.382Z,6.00
2018-08-03T06:17:04.292Z,6.20
2018-08-03T06:17:38.734Z,6.33
2018-08-03T06:18:12.456Z,5.37
2018-08-03T06:18:46.601Z,6.45
2018-08-03T06:19:20.463Z,6.80
2018-08-03T06:19:54.147Z,6.60
2018-08-03T06:20:27.979Z,6.45
2018-08-03T06:21:01.815Z,6.27
2018-08-03T06:21:35.963Z,6.37
2018-08-03T06:22:09.769Z,6.63
2018-08-03T06:22:43.892Z,7.33
2018-08-03T06:23:18.089Z,6.92
2018-08-03T06:23:52.060Z,6.30
2018-08-03T06:24:25.871Z,7.23
2018-08-03T06:24:59.579Z,6.28
2018-08-03T06:25:33.481Z,7.57
2018-08-03T06:26:07.199Z,6.57
2018-08-03T06:26:41.344Z,6.78
2018-08-03T06:27:15.049Z,6.65
2018-08-03T06:27:48.839Z,6.83
2018-08-03T06:28:22.484Z,6.80
2018-08-03T06:28:56.179Z,8.10
2018-08-03T06:29:30.525Z,8.15
2018-08-03T06:30:05.531Z,8.13
2018-08-03T06:30:39.304Z,7.30
2018-08-03T06:31:13.113Z,6.97
2018-08-03T06:31:46.895Z,6.83
2018-08-03T06:32:20.603Z,6.80
2018-08-03T06:32:54.343Z,7.53
2018-08-03T06:33:28.080Z,7.55
2018-08-03T06:34:01.951Z,6.50
2018-08-03T06:34:35.788Z,7.05
2018-08-03T06:35:09.966Z,7.83
2018-08-03T06:35:44.494Z,7.05
2018-08-03T06:36:18.683Z,6.93
2018-08-03T06:36:52.758Z,7.33
2018-08-03T06:37:26.528Z,6.97
2018-08-03T06:38:00.108Z,6.90
2018-08-03T06:38:33.846Z,7.30
2018-08-03T06:39:08.852Z,6.93
2018-08-03T06:39:42.575Z,6.47
2018-08-03T06:40:17.840Z,6.42
2018-08-03T06:40:51.655Z,7.22
2018-08-03T06:41:25.467Z,6.62
2018-08-03T06:41:59.344Z,7.50
2018-08-03T06:42:33.371Z,6.60
2018-08-03T06:43:07.348Z,6.78
2018-08-03T06:43:41.141Z,6.70
2018-08-03T06:44:14.872Z,7.03
2018-08-03T06:44:48.718Z,7.03
2018-08-03T06:45:22.380Z,7.20
2018-08-03T06:45:56.303Z,6.92
2018-08-03T06:46:29.963Z,6.95
2018-08-03T06:47:03.704Z,6.35
2018-08-03T06:47:37.491Z,6.50
2018-08-03T06:48:11.288Z,6.97
2018-08-03T06:48:45.094Z,6.87
2018-08-03T06:49:19.013Z,6.87
2018-08-03T06:49:52.956Z,6.80
2018-08-03T06:50:26.676Z,7.30
2018-08-03T06:51:00.635Z,6.72
2018-08-03T06:51:34.255Z,6.50
2018-08-03T06:52:08.024Z,6.83
2018-08-03T06:52:42.023Z,7.33
2018-08-03T06:53:15.817Z,5.90
2018-08-03T06:53:49.673Z,6.03
2018-08-03T06:54:23.469Z,6.40
2018-08-03T06:54:57.480Z,7.08
2018-08-03T06:55:31.568Z,5.97
2018-08-03T06:56:05.469Z,7.00
2018-08-03T06:56:39.243Z,6.37
2018-08-03T06:57:13.067Z,7.12
2018-08-03T06:57:47.095Z,7.03
2018-08-03T06:58:20.951Z,6.63
2018-08-03T06:58:54.598Z,6.42
2018-08-03T06:59:28.453Z,7.28
2018-08-03T07:00:02.550Z,6.17
2018-08-03T07:00:36.140Z,6.75
2018-08-03T07:01:09.915Z,6.90
2018-08-03T07:01:44.507Z,7.15
2018-08-03T07:02:18.613Z,6.37
2018-08-03T07:02:52.558Z,6.17
2018-08-03T07:03:26.371Z,6.65
2018-08-03T07:04:00.328Z,6.73
2018-08-03T07:04:34.200Z,6.72
2018-08-03T07:05:08.084Z,6.50
2018-08-03T07:05:42.113Z,6.40
2018-08-03T07:06:16.297Z,7.33
2018-08-03T07:06:50.109Z,7.20
2018-08-03T07:07:24.099Z,6.45
2018-08-03T07:07:57.973Z,6.67
2018-08-03T07:08:31.935Z,6.33
2018-08-03T07:09:07.523Z,6.78
2018-08-03T07:09:41.335Z,6.17
2018-08-03T07:10:15.157Z,5.60
2018-08-03T07:10:48.900Z,6.20
2018-08-03T07:11:22.852Z,5.72
2018-08-03T07:11:56.625Z,6.60
2018-08-03T07:12:30.469Z,6.40
2018-08-03T07:13:04.362Z,6.10
2018-08-03T07:13:38.185Z,6.28
2018-08-03T07:14:11.834Z,6.03
2018-08-03T07:14:45.574Z,6.03
2018-08-03T07:15:19.170Z,6.92
2018-08-03T07:15:53.092Z,6.85
2018-08-03T07:16:26.911Z,6.47
2018-08-03T07:17:00.699Z,5.70
2018-08-03T07:17:35.187Z,7.25
2018-08-03T07:18:09.320Z,7.40
2018-08-03T07:18:43.457Z,11.88
2018-08-03T07:19:17.366Z,7.83
2018-08-03T07:19:51.374Z,6.60
2018-08-03T07:20:25.009Z,6.50
2018-08-03T07:20:58.980Z,6.90
2018-08-03T07:21:32.677Z,6.30
2018-08-03T07:22:06.683Z,5.95
2018-08-03T07:22:40.477Z,5.90
2018-08-03T07:23:14.300Z,6.20
2018-08-03T07:23:48.135Z,5.42
2018-08-03T07:24:22.211Z,5.65
2018-08-03T07:24:56.149Z,5.42
2018-08-03T07:25:30.024Z,5.90
2018-08-03T07:26:03.777Z,6.58
2018-08-03T07:26:37.638Z,6.03
2018-08-03T07:27:11.297Z,6.22
2018-08-03T07:27:45.308Z,6.20
2018-08-03T07:28:19.176Z,5.60
2018-08-03T07:28:53.360Z,5.60
2018-08-03T07:29:27.142Z,5.80
2018-08-03T07:30:01.487Z,6.03
2018-08-03T07:30:35.254Z,14.28
2018-08-03T07:31:08.992Z,13.93
2018-08-03T07:31:42.810Z,10.23